Time,TemperatureF,DewpointF,PressureIn,WindDirection,WindDirectionDegrees,WindSpeedMPH,WindSpeedGustMPH,Humidity,HourlyPrecipIn,Conditions,Clouds,dailyrainin,SoftwareType,DateUTC
2013-05-07 00:01:00,36.6,34.8,30.05,East,82,0.0,0.0,93,0.00,CLR,,0.00,WeatherDisplay:10.37,2013-05-07 05:01:00,
2013-05-07 00:06:00,36.5,34.7,30.05,East,82,0.0,0.0,93,0.00,CLR,,0.00,WeatherDisplay:10.37,2013-05-07 05:06:00,
2013-05-07 00:11:00,36.3,34.2,30.05,East,82,0.0,0.0,92,0.00,CLR,,0.00,WeatherDisplay:10.37,2013-05-07 05:11:00,
2013-05-07 00:16:00,36.1,34.0,30.05,East,82,0.0,0.0,92,0.00,CLR,,0.00,WeatherDisplay:10.37,2013-05-07 05:16:00,
2013-05-07 00:21:00,36.1,34.3,30.05,East,81,0.0,0.0,93,0.00,CLR,,0.00,WeatherDisplay:10.37,2013-05-07 05:21:00,
2013-05-07 00:26:00,36.2,34.4,30.05,East,80,0.0,0.0,93,0.00,CLR,,0.00,WeatherDisplay:10.37,2013-05-07 05:26:00,
2013-05-07 00:31:00,36.3,34.5,30.05,East,81,0.0,0.0,93,0.00,CLR,,0.00,WeatherDisplay:10.37,2013-05-07 05:31:00,
2013-05-07 00:36:00,36.3,34.5,30.05,East,80,0.0,0.0,93,0.00,CLR,,0.00,WeatherDisplay:10.37,2013-05-07 05:36:00,
2013-05-07 00:41:00,36.1,34.3,30.06,North,350,0.0,0.0,93,0.00,CLR,,0.00,WeatherDisplay:10.37,2013-05-07 05:41:00,
2013-05-07 00:46:00,36.1,34.3,30.06,NNW,338,0.0,0.0,93,0.00,CLR,,0.00,WeatherDisplay:10.37,2013-05-07 05:46:00,
2013-05-07 00:51:00,36.1,34.3,30.06,NNW,339,0.0,0.0,93,0.00,CLR,,0.00,WeatherDisplay:10.37,2013-05-07 05:51:00,
2013-05-07 00:56:00,36.0,34.2,30.06,NNW,339,0.0,0.0,93,0.00,CLR,,0.00,WeatherDisplay:10.37,2013-05-07 05:56:00,
2013-05-07 01:01:00,35.9,34.1,30.06,NNW,339,0.0,0.0,93,0.00,CLR,,0.00,WeatherDisplay:10.37,2013-05-07 06:01:00,
2013-05-07 01:06:00,35.7,33.9,30.06,NNW,338,0.0,0.0,93,0.00,CLR,,0.00,WeatherDisplay:10.37,2013-05-07 06:06:00,
2013-05-07 01:11:00,35.6,33.8,30.06,NNW,339,0.0,0.0,93,0.00,CLR,,0.00,WeatherDisplay:10.37,2013-05-07 06:11:00,
2013-05-07 01:16:00,35.4,33.6,30.06,NNW,338,1.1,1.1,93,0.00,CLR,,0.00,WeatherDisplay:10.37,2013-05-07 06:16:00,
2013-05-07 01:21:00,35.4,33.6,30.06,NNW,339,0.0,0.1,93,0.00,CLR,,0.00,WeatherDisplay:10.37,2013-05-07 06:21:00,
2013-05-07 01:26:00,35.5,33.9,30.06,NW,319,0.0,0.0,94,0.00,CLR,,0.00,WeatherDisplay:10.37,2013-05-07 06:26:00,
2013-05-07 01:31:00,35.6,34.0,30.06,NW,319,0.0,0.0,94,0.00,CLR,,0.00,WeatherDisplay:10.37,2013-05-07 06:31:00,
2013-05-07 01:37:00,35.4,33.6,30.06,NW,319,0.0,0.0,93,0.00,CLR,,0.00,WeatherDisplay:10.37,2013-05-07 06:37:00,
2013-05-07 01:42:00,35.2,33.4,30.06,NW,319,0.0,0.0,93,0.00,CLR,,0.00,WeatherDisplay:10.37,2013-05-07 06:42:00,
2013-05-07 01:47:00,35.1,33.3,30.06,NW,319,0.0,0.0,93,0.00,CLR,,0.00,WeatherDisplay:10.37,2013-05-07 06:47:00,
2013-05-07 01:52:00,35.1,33.3,30.06,NW,304,0.0,0.0,93,0.00,CLR,,0.00,WeatherDisplay:10.37,2013-05-07 06:52:00,
2013-05-07 01:57:00,35.0,33.4,30.06,NW,305,0.0,0.0,94,0.00,CLR,,0.00,WeatherDisplay:10.37,2013-05-07 06:57:00,
2013-05-07 02:02:00,35.0,33.4,30.05,NW,304,0.0,0.0,94,0.00,CLR,,0.00,WeatherDisplay:10.37,2013-05-07 07:02:00,
2013-05-07 02:07:00,35.1,33.5,30.06,NW,304,0.0,0.0,94,0.00,CLR,,0.00,WeatherDisplay:10.37,2013-05-07 07:07:00,
2013-05-07 02:12:00,35.3,34.0,30.06,NW,304,0.0,0.0,95,0.00,CLR,,0.00,WeatherDisplay:10.37,2013-05-07 07:12:00,
2013-05-07 02:17:00,35.3,33.7,30.06,NW,305,0.0,0.0,94,0.00,CLR,,0.00,WeatherDisplay:10.37,2013-05-07 07:17:00,
2013-05-07 02:22:00,35.3,33.7,30.06,NW,305,0.0,0.0,94,0.00,CLR,,0.00,WeatherDisplay:10.37,2013-05-07 07:22:00,
2013-05-07 02:27:00,35.5,34.2,30.06,NW,304,0.0,0.0,95,0.00,CLR,,0.00,WeatherDisplay:10.37,2013-05-07 07:27:00,
2013-05-07 02:32:00,35.3,33.7,30.06,NW,305,0.0,0.0,94,0.00,CLR,,0.00,WeatherDisplay:10.37,2013-05-07 07:32:00,
2013-05-07 02:37:00,35.1,33.5,30.06,NW,304,0.0,0.0,94,0.00,CLR,,0.00,WeatherDisplay:10.37,2013-05-07 07:37:00,
2013-05-07 02:42:00,34.7,32.9,30.06,NW,305,0.0,0.0,93,0.00,CLR,,0.00,WeatherDisplay:10.37,2013-05-07 07:42:00,
2013-05-07 02:47:00,34.3,32.5,30.06,NW,305,0.0,0.0,93,0.00,CLR,,0.00,WeatherDisplay:10.37,2013-05-07 07:47:00,
2013-05-07 02:52:00,34.0,32.2,30.06,NW,304,0.0,0.0,93,0.00,CLR,,0.00,WeatherDisplay:10.37,2013-05-07 07:52:00,
2013-05-07 02:57:00,33.9,32.1,30.06,NW,305,0.0,0.0,93,0.00,CLR,,0.00,WeatherDisplay:10.37,2013-05-07 07:57:00,
2013-05-07 03:02:00,33.7,31.9,30.06,NW,305,0.0,0.0,93,0.00,CLR,,0.00,WeatherDisplay:10.37,2013-05-07 08:02:00,
2013-05-07 03:07:00,33.8,32.3,30.06,NW,304,0.0,0.0,94,0.00,CLR,,0.00,WeatherDisplay:10.37,2013-05-07 08:07:00,
2013-05-07 03:12:00,33.5,31.7,30.06,NW,305,0.0,0.0,93,0.00,CLR,,0.00,WeatherDisplay:10.37,2013-05-07 08:12:00,
2013-05-07 03:17:00,33.2,31.4,30.07,NW,304,0.0,0.0,93,0.00,CLR,,0.00,WeatherDisplay:10.37,2013-05-07 08:17:00,
2013-05-07 03:22:00,33.0,31.2,30.07,NW,304,0.0,0.0,93,0.00,CLR,,0.00,WeatherDisplay:10.37,2013-05-07 08:22:00,
2013-05-07 03:27:00,33.0,31.5,30.07,NW,305,0.0,0.0,94,0.00,CLR,,0.00,WeatherDisplay:10.37,2013-05-07 08:27:00,
2013-05-07 03:32:00,32.8,31.3,30.07,NW,305,0.0,0.0,94,0.00,CLR,,0.00,WeatherDisplay:10.37,2013-05-07 08:32:00,
2013-05-07 03:37:00,32.6,31.1,30.07,NW,304,0.0,0.0,94,0.00,CLR,,0.00,WeatherDisplay:10.37,2013-05-07 08:37:00,
2013-05-07 03:42:00,32.4,30.9,30.07,NW,305,0.0,0.0,94,0.00,CLR,,0.00,WeatherDisplay:10.37,2013-05-07 08:42:00,
2013-05-07 03:47:00,32.3,30.8,30.07,NW,305,0.0,0.0,94,0.00,CLR,,0.00,WeatherDisplay:10.37,2013-05-07 08:47:00,
2013-05-07 03:52:00,32.2,30.7,30.07,NW,304,0.0,0.0,94,0.00,CLR,,0.00,WeatherDisplay:10.37,2013-05-07 08:52:00,
2013-05-07 03:57:00,32.1,30.6,30.07,NW,305,0.0,0.0,94,0.00,CLR,,0.00,WeatherDisplay:10.37,2013-05-07 08:57:00,
2013-05-07 04:02:00,32.0,30.5,30.07,WNW,301,1.1,0.0,94,0.00,CLR,,0.00,WeatherDisplay:10.37,2013-05-07 09:02:00,
2013-05-07 04:07:00,32.1,30.6,30.07,WNW,300,0.0,0.0,94,0.00,CLR,,0.00,WeatherDisplay:10.37,2013-05-07 09:07:00,
2013-05-07 04:12:00,32.0,30.5,30.07,WNW,301,0.0,0.0,94,0.00,CLR,,0.00,WeatherDisplay:10.37,2013-05-07 09:12:00,
2013-05-07 04:17:00,32.0,30.5,30.07,WNW,300,0.0,0.0,94,0.00,CLR,,0.00,WeatherDisplay:10.37,2013-05-07 09:17:00,
2013-05-07 04:22:00,32.1,30.8,30.07,WNW,300,0.0,0.0,95,0.00,CLR,,0.00,WeatherDisplay:10.37,2013-05-07 09:22:00,
2013-05-07 04:27:00,32.1,30.8,30.07,WNW,301,0.0,0.0,95,0.00,CLR,,0.00,WeatherDisplay:10.37,2013-05-07 09:27:00,
2013-05-07 04:32:00,32.1,30.8,30.07,WNW,301,0.0,0.0,95,0.00,CLR,,0.00,WeatherDisplay:10.37,2013-05-07 09:32:00,
2013-05-07 04:37:00,32.1,30.8,30.07,WNW,301,0.0,0.0,95,0.00,CLR,,0.00,WeatherDisplay:10.37,2013-05-07 09:37:00,
2013-05-07 04:42:00,32.2,30.9,30.07,WNW,301,0.0,0.0,95,0.00,CLR,,0.00,WeatherDisplay:10.37,2013-05-07 09:42:00,
2013-05-07 04:47:00,32.4,31.1,30.07,WNW,300,0.0,0.0,95,0.00,CLR,,0.00,WeatherDisplay:10.37,2013-05-07 09:47:00,
2013-05-07 04:52:00,32.5,31.2,30.07,WNW,300,0.0,0.0,95,0.00,CLR,,0.00,WeatherDisplay:10.37,2013-05-07 09:52:00,
2013-05-07 04:57:00,32.7,31.4,30.07,WNW,300,0.0,0.0,95,0.00,CLR,,0.00,WeatherDisplay:10.37,2013-05-07 09:57:00,
2013-05-07 05:02:00,32.9,31.9,30.07,WNW,300,1.1,1.1,96,0.00,CLR,,0.00,WeatherDisplay:10.37,2013-05-07 10:02:00,
2013-05-07 05:07:00,33.0,31.7,30.07,WNW,301,0.0,0.0,95,0.00,CLR,,0.00,WeatherDisplay:10.37,2013-05-07 10:07:00,
2013-05-07 05:12:00,33.0,31.7,30.07,WNW,301,0.0,0.0,95,0.00,CLR,,0.00,WeatherDisplay:10.37,2013-05-07 10:12:00,
2013-05-07 05:17:00,33.1,31.8,30.07,WNW,300,0.0,0.0,95,0.00,CLR,,0.00,WeatherDisplay:10.37,2013-05-07 10:17:00,
2013-05-07 05:22:00,33.1,31.8,30.07,WNW,300,0.0,0.0,95,0.00,CLR,,0.00,WeatherDisplay:10.37,2013-05-07 10:22:00,
2013-05-07 05:27:00,33.0,31.7,30.07,WNW,301,0.0,0.1,95,0.00,CLR,,0.00,WeatherDisplay:10.37,2013-05-07 10:27:00,
2013-05-07 05:32:00,33.1,31.8,30.07,WNW,301,0.0,0.0,95,0.00,CLR,,0.00,WeatherDisplay:10.37,2013-05-07 10:32:00,
2013-05-07 05:37:00,33.4,32.4,30.07,WNW,300,0.0,0.0,96,0.00,CLR,,0.00,WeatherDisplay:10.37,2013-05-07 10:37:00,
2013-05-07 05:42:00,34.4,33.4,30.07,NW,311,1.1,0.0,96,0.00,CLR,,0.00,WeatherDisplay:10.37,2013-05-07 10:42:00,
2013-05-07 05:47:00,35.2,34.4,30.07,NW,311,0.0,0.0,97,0.00,CLR,,0.00,WeatherDisplay:10.37,2013-05-07 10:47:00,
2013-05-07 05:52:00,35.5,34.7,30.07,NW,311,0.0,0.0,97,0.00,CLR,,0.00,WeatherDisplay:10.37,2013-05-07 10:52:00,
2013-05-07 05:57:00,35.7,34.9,30.07,NW,311,0.0,0.0,97,0.00,CLR,,0.00,WeatherDisplay:10.37,2013-05-07 10:57:00,
2013-05-07 06:02:00,35.9,35.1,30.07,NW,311,0.0,0.0,97,0.00,CLR,,0.00,WeatherDisplay:10.37,2013-05-07 11:02:00,
2013-05-07 06:07:00,36.5,35.7,30.07,NW,311,0.0,0.0,97,0.00,CLR,,0.00,WeatherDisplay:10.37,2013-05-07 11:07:00,
2013-05-07 06:12:00,36.9,36.1,30.07,NW,311,0.0,0.0,97,0.00,CLR,,0.00,WeatherDisplay:10.37,2013-05-07 11:12:00,
2013-05-07 06:17:00,37.1,36.3,30.07,NW,311,0.0,0.0,97,0.00,CLR,,0.00,WeatherDisplay:10.37,2013-05-07 11:17:00,
2013-05-07 06:22:00,37.5,36.7,30.07,NW,311,0.0,0.0,97,0.00,CLR,,0.00,WeatherDisplay:10.37,2013-05-07 11:22:00,
2013-05-07 06:28:00,38.0,37.2,30.07,NW,311,0.0,0.0,97,0.00,CLR,,0.00,WeatherDisplay:10.37,2013-05-07 11:28:00,
2013-05-07 06:32:00,38.5,37.7,30.07,NW,312,0.0,0.0,97,0.00,CLR,,0.00,WeatherDisplay:10.37,2013-05-07 11:32:00,
2013-05-07 06:38:00,39.2,38.4,30.07,NW,311,0.0,0.0,97,0.00,CLR,,0.00,WeatherDisplay:10.37,2013-05-07 11:38:00,
2013-05-07 06:43:00,39.8,39.0,30.07,NW,311,0.0,0.0,97,0.00,CLR,,0.00,WeatherDisplay:10.37,2013-05-07 11:43:00,
2013-05-07 06:48:00,40.5,39.7,30.07,NW,311,0.0,0.0,97,0.00,CLR,,0.00,WeatherDisplay:10.37,2013-05-07 11:48:00,
2013-05-07 06:53:00,41.7,40.9,30.07,NW,309,0.0,0.0,97,0.00,CLR,,0.00,WeatherDisplay:10.37,2013-05-07 11:53:00,
2013-05-07 06:58:00,42.3,41.5,30.07,NW,309,0.0,0.0,97,0.00,CLR,,0.00,WeatherDisplay:10.37,2013-05-07 11:58:00,
2013-05-07 07:03:00,42.8,42.0,30.08,NW,309,0.0,0.0,97,0.00,CLR,,0.00,WeatherDisplay:10.37,2013-05-07 12:03:00,
2013-05-07 07:08:00,43.2,41.6,30.08,NW,311,0.0,0.0,94,0.00,CLR,,0.00,WeatherDisplay:10.37,2013-05-07 12:08:00,
2013-05-07 07:13:00,43.6,41.7,30.08,NW,311,0.0,0.0,93,0.00,CLR,,0.00,WeatherDisplay:10.37,2013-05-07 12:13:00,
2013-05-07 07:18:00,44.5,42.6,30.08,NW,309,0.0,0.0,93,0.00,CLR,,0.00,WeatherDisplay:10.37,2013-05-07 12:18:00,
2013-05-07 07:23:00,45.7,43.5,30.08,NW,309,0.0,0.0,92,0.00,CLR,,0.00,WeatherDisplay:10.37,2013-05-07 12:23:00,
2013-05-07 07:28:00,46.6,43.8,30.08,NW,309,0.0,0.0,90,0.00,CLR,,0.00,WeatherDisplay:10.37,2013-05-07 12:28:00,
2013-05-07 07:33:00,47.4,44.3,30.08,NW,309,0.0,0.0,89,0.00,CLR,,0.00,WeatherDisplay:10.37,2013-05-07 12:33:00,
2013-05-07 07:38:00,48.6,44.9,30.08,NW,311,0.0,0.0,87,0.00,CLR,,0.00,WeatherDisplay:10.37,2013-05-07 12:38:00,
2013-05-07 07:43:00,50.1,45.5,30.08,NW,311,0.0,0.0,84,0.00,CLR,,0.00,WeatherDisplay:10.37,2013-05-07 12:43:00,
2013-05-07 07:48:00,51.5,46.2,30.08,NW,311,0.0,0.0,82,0.00,CLR,,0.00,WeatherDisplay:10.37,2013-05-07 12:48:00,
2013-05-07 07:53:00,52.6,46.6,30.08,NW,308,0.0,0.0,80,0.00,CLR,,0.00,WeatherDisplay:10.37,2013-05-07 12:53:00,
2013-05-07 07:58:00,53.3,47.0,30.08,NW,308,0.0,0.0,79,0.00,CLR,,0.00,WeatherDisplay:10.37,2013-05-07 12:58:00,
2013-05-07 08:03:00,53.9,46.9,30.08,NW,308,0.0,0.0,77,0.00,CLR,,0.00,WeatherDisplay:10.37,2013-05-07 13:03:00,
2013-05-07 08:08:00,54.5,46.7,30.08,NW,309,0.0,0.0,75,0.00,CLR,,0.00,WeatherDisplay:10.37,2013-05-07 13:08:00,
2013-05-07 08:13:00,54.7,46.9,30.08,WNW,302,0.0,0.0,75,0.00,CLR,,0.00,WeatherDisplay:10.37,2013-05-07 13:13:00,
2013-05-07 08:18:00,55.0,47.2,30.08,WNW,302,0.0,0.0,75,0.00,CLR,,0.00,WeatherDisplay:10.37,2013-05-07 13:18:00,
2013-05-07 08:23:00,55.4,47.2,30.08,WNW,302,0.0,0.0,74,0.00,CLR,,0.00,WeatherDisplay:10.37,2013-05-07 13:23:00,
2013-05-07 08:28:00,55.8,47.6,30.08,WNW,302,0.0,0.0,74,0.00,CLR,,0.00,WeatherDisplay:10.37,2013-05-07 13:28:00,
2013-05-07 08:33:00,55.9,47.4,30.08,WNW,302,1.1,1.1,73,0.00,CLR,,0.00,WeatherDisplay:10.37,2013-05-07 13:33:00,
2013-05-07 08:38:00,56.1,47.6,30.08,WNW,302,0.0,0.0,73,0.00,CLR,,0.00,WeatherDisplay:10.37,2013-05-07 13:38:00,
2013-05-07 08:43:00,56.3,47.4,30.08,ESE,115,0.0,0.0,72,0.00,CLR,,0.00,WeatherDisplay:10.37,2013-05-07 13:43:00,
2013-05-07 08:48:00,56.5,48.3,30.08,ESE,115,0.0,0.0,74,0.00,CLR,,0.00,WeatherDisplay:10.37,2013-05-07 13:48:00,
2013-05-07 08:53:00,56.7,48.1,30.08,ESE,115,0.0,0.0,73,0.00,CLR,,0.00,WeatherDisplay:10.37,2013-05-07 13:53:00,
2013-05-07 08:58:00,57.0,48.1,30.08,ESE,115,0.0,0.0,72,0.00,CLR,,0.00,WeatherDisplay:10.37,2013-05-07 13:58:00,
2013-05-07 09:03:00,57.1,48.5,30.08,ESE,115,0.0,0.0,73,0.00,CLR,,0.00,WeatherDisplay:10.37,2013-05-07 14:03:00,
2013-05-07 09:08:00,57.2,48.6,30.08,ESE,115,0.0,0.0,73,0.00,CLR,,0.00,WeatherDisplay:10.37,2013-05-07 14:08:00,
2013-05-07 09:13:00,57.3,48.3,30.08,ESE,114,0.0,0.0,72,0.00,CLR,,0.00,WeatherDisplay:10.37,2013-05-07 14:13:00,
2013-05-07 09:18:00,57.6,49.0,30.08,ESE,115,0.0,0.0,73,0.00,CLR,,0.00,WeatherDisplay:10.37,2013-05-07 14:18:00,
2013-05-07 09:23:00,57.9,48.6,30.08,ESE,115,0.0,0.0,71,0.00,CLR,,0.00,WeatherDisplay:10.37,2013-05-07 14:23:00,
2013-05-07 09:28:00,58.2,49.2,30.07,ESE,117,0.0,0.0,72,0.00,CLR,,0.00,WeatherDisplay:10.37,2013-05-07 14:28:00,
2013-05-07 09:33:00,58.5,48.7,30.07,ESE,117,0.0,0.0,70,0.00,CLR,,0.00,WeatherDisplay:10.37,2013-05-07 14:33:00,
2013-05-07 09:38:00,58.8,48.6,30.07,NW,304,0.0,0.0,69,0.00,CLR,,0.00,WeatherDisplay:10.37,2013-05-07 14:38:00,
2013-05-07 09:43:00,59.2,48.6,30.07,East,98,0.0,0.0,68,0.00,CLR,,0.00,WeatherDisplay:10.37,2013-05-07 14:43:00,
2013-05-07 09:48:00,59.8,48.8,30.07,East,90,0.0,0.0,67,0.00,CLR,,0.00,WeatherDisplay:10.37,2013-05-07 14:48:00,
2013-05-07 09:53:00,60.6,49.2,30.07,South,172,1.1,1.1,66,0.00,CLR,,0.00,WeatherDisplay:10.37,2013-05-07 14:53:00,
2013-05-07 09:58:00,61.0,47.9,30.07,ESE,121,1.1,0.0,62,0.00,CLR,,0.00,WeatherDisplay:10.37,2013-05-07 14:58:00,
2013-05-07 10:03:00,60.9,48.2,30.07,SE,143,2.3,2.3,63,0.00,CLR,,0.00,WeatherDisplay:10.37,2013-05-07 15:03:00,
2013-05-07 10:08:00,60.8,48.1,30.07,ESE,116,3.5,3.5,63,0.00,CLR,,0.00,WeatherDisplay:10.37,2013-05-07 15:08:00,
2013-05-07 10:13:00,60.7,48.0,30.07,SE,126,1.1,1.1,63,0.00,CLR,,0.00,WeatherDisplay:10.37,2013-05-07 15:13:00,
2013-05-07 10:18:00,61.0,47.9,30.07,ESE,108,2.3,2.3,62,0.00,CLR,,0.00,WeatherDisplay:10.37,2013-05-07 15:18:00,
2013-05-07 10:23:00,61.7,47.2,30.07,East,98,3.5,3.5,59,0.00,CLR,,0.00,WeatherDisplay:10.37,2013-05-07 15:23:00,
2013-05-07 10:28:00,62.5,48.4,30.06,ESE,114,2.0,2.0,60,0.00,CLR,,0.00,WeatherDisplay:10.37,2013-05-07 15:28:00,
2013-05-07 10:33:00,63.3,48.3,30.06,ESE,121,2.0,2.0,58,0.00,CLR,,0.00,WeatherDisplay:10.37,2013-05-07 15:33:00,
2013-05-07 10:38:00,63.7,47.2,30.06,SE,133,4.6,4.6,55,0.00,CLR,,0.00,WeatherDisplay:10.37,2013-05-07 15:38:00,
2013-05-07 10:43:00,63.7,46.2,30.06,ESE,120,2.3,2.3,53,0.00,CLR,,0.00,WeatherDisplay:10.37,2013-05-07 15:43:00,
2013-05-07 10:48:00,63.9,47.9,30.06,ESE,118,3.5,3.5,56,0.00,CLR,,0.00,WeatherDisplay:10.37,2013-05-07 15:48:00,
2013-05-07 10:53:00,63.9,47.4,30.06,ESE,120,4.0,4.0,55,0.00,CLR,,0.00,WeatherDisplay:10.37,2013-05-07 15:53:00,
2013-05-07 10:58:00,63.5,47.0,30.06,East,91,3.5,3.5,55,0.00,CLR,,0.00,WeatherDisplay:10.37,2013-05-07 15:58:00,
2013-05-07 11:03:00,63.5,47.0,30.06,East,82,3.5,3.5,55,0.00,CLR,,0.00,WeatherDisplay:10.37,2013-05-07 16:03:00,
2013-05-07 11:08:00,63.0,46.6,30.06,East,101,4.6,4.6,55,0.00,CLR,,0.00,WeatherDisplay:10.37,2013-05-07 16:08:00,
2013-05-07 11:13:00,62.9,47.0,30.06,East,93,4.6,4.6,56,0.00,CLR,,0.00,WeatherDisplay:10.37,2013-05-07 16:13:00,
2013-05-07 11:18:00,63.2,47.7,30.06,ESE,113,4.6,4.6,57,0.00,CLR,,0.00,WeatherDisplay:10.37,2013-05-07 16:18:00,
2013-05-07 11:23:00,63.2,47.7,30.06,SE,127,3.5,3.5,57,0.00,CLR,,0.00,WeatherDisplay:10.37,2013-05-07 16:23:00,
2013-05-07 11:28:00,63.5,48.5,30.06,SE,146,4.0,4.0,58,0.00,CLR,,0.00,WeatherDisplay:10.37,2013-05-07 16:28:00,
2013-05-07 11:33:00,63.9,47.9,30.05,SE,130,2.3,2.3,56,0.00,CLR,,0.00,WeatherDisplay:10.37,2013-05-07 16:33:00,
2013-05-07 11:38:00,63.9,47.4,30.05,SE,141,4.0,4.0,55,0.00,CLR,,0.00,WeatherDisplay:10.37,2013-05-07 16:38:00,
2013-05-07 11:43:00,64.0,48.5,30.05,SSE,148,3.5,3.5,57,0.00,CLR,,0.00,WeatherDisplay:10.37,2013-05-07 16:43:00,
2013-05-07 11:48:00,64.4,47.4,30.05,ESE,103,4.6,4.6,54,0.00,CLR,,0.00,WeatherDisplay:10.37,2013-05-07 16:48:00,
2013-05-07 11:53:00,64.7,47.2,30.05,ESE,115,3.5,3.5,53,0.00,CLR,,0.00,WeatherDisplay:10.37,2013-05-07 16:53:00,
2013-05-07 11:58:00,64.9,47.4,30.05,ESE,116,4.0,4.0,53,0.00,CLR,,0.00,WeatherDisplay:10.37,2013-05-07 16:58:00,
2013-05-07 12:03:00,65.4,48.3,30.05,ESE,122,5.8,5.8,54,0.00,CLR,,0.00,WeatherDisplay:10.37,2013-05-07 17:03:00,
2013-05-07 12:08:00,65.2,48.1,30.05,ESE,115,3.5,3.5,54,0.00,CLR,,0.00,WeatherDisplay:10.37,2013-05-07 17:08:00,
2013-05-07 12:13:00,65.2,48.1,30.05,ESE,120,4.6,4.6,54,0.00,CLR,,0.00,WeatherDisplay:10.37,2013-05-07 17:13:00,
2013-05-07 12:18:00,65.3,49.2,30.04,SE,127,5.8,5.8,56,0.00,CLR,,0.00,WeatherDisplay:10.37,2013-05-07 17:18:00,
2013-05-07 12:23:00,65.7,49.1,30.05,SE,131,5.0,5.0,55,0.00,CLR,,0.00,WeatherDisplay:10.37,2013-05-07 17:23:00,
2013-05-07 12:28:00,65.8,48.7,30.05,ENE,70,4.6,4.6,54,0.00,CLR,,0.00,WeatherDisplay:10.37,2013-05-07 17:28:00,
2013-05-07 12:33:00,65.2,47.6,30.04,East,94,4.6,4.6,53,0.00,CLR,,0.00,WeatherDisplay:10.37,2013-05-07 17:33:00,
2013-05-07 12:38:00,65.5,47.9,30.04,East,94,5.0,5.0,53,0.00,CLR,,0.00,WeatherDisplay:10.37,2013-05-07 17:38:00,
2013-05-07 12:43:00,65.7,48.1,30.04,East,100,4.6,4.6,53,0.00,CLR,,0.00,WeatherDisplay:10.37,2013-05-07 17:43:00,
2013-05-07 12:48:00,66.1,48.5,30.04,ESE,116,4.6,4.6,53,0.00,CLR,,0.00,WeatherDisplay:10.37,2013-05-07 17:48:00,
2013-05-07 12:53:00,66.0,47.9,30.04,East,97,5.0,5.0,52,0.00,CLR,,0.00,WeatherDisplay:10.37,2013-05-07 17:53:00,
2013-05-07 12:58:00,65.9,48.3,30.03,ESE,114,5.0,5.0,53,0.00,CLR,,0.00,WeatherDisplay:10.37,2013-05-07 17:58:00,
2013-05-07 13:03:00,66.0,48.4,30.03,ESE,120,3.5,3.5,53,0.00,CLR,,0.00,WeatherDisplay:10.37,2013-05-07 18:03:00,
2013-05-07 13:08:00,66.3,48.7,30.03,ESE,113,4.6,4.6,53,0.00,CLR,,0.00,WeatherDisplay:10.37,2013-05-07 18:08:00,
2013-05-07 13:13:00,66.4,47.2,30.03,ESE,114,6.9,6.9,50,0.00,CLR,,0.00,WeatherDisplay:10.37,2013-05-07 18:13:00,
2013-05-07 13:18:00,66.4,48.2,30.03,ESE,114,3.5,3.5,52,0.00,CLR,,0.00,WeatherDisplay:10.37,2013-05-07 18:18:00,
2013-05-07 13:23:00,66.7,49.0,30.03,East,95,5.8,5.8,53,0.00,CLR,,0.00,WeatherDisplay:10.37,2013-05-07 18:23:00,
2013-05-07 13:28:00,67.0,48.8,30.03,East,98,5.0,5.0,52,0.00,CLR,,0.00,WeatherDisplay:10.37,2013-05-07 18:28:00,
2013-05-07 13:33:00,66.9,47.6,30.03,SE,124,6.0,6.0,50,0.00,CLR,,0.00,WeatherDisplay:10.37,2013-05-07 18:33:00,
2013-05-07 13:38:00,67.1,48.4,30.03,SE,133,4.0,4.0,51,0.00,CLR,,0.00,WeatherDisplay:10.37,2013-05-07 18:38:00,
2013-05-07 13:43:00,67.2,47.4,30.02,ESE,106,4.6,4.6,49,0.00,CLR,,0.00,WeatherDisplay:10.37,2013-05-07 18:43:00,
2013-05-07 13:48:00,67.2,47.4,30.02,ESE,117,5.0,5.0,49,0.00,CLR,,0.00,WeatherDisplay:10.37,2013-05-07 18:48:00,
2013-05-07 13:53:00,67.3,47.5,30.02,ESE,118,4.0,4.0,49,0.00,CLR,,0.00,WeatherDisplay:10.37,2013-05-07 18:53:00,
2013-05-07 13:58:00,67.3,47.5,30.02,ESE,116,4.6,4.6,49,0.00,CLR,,0.00,WeatherDisplay:10.37,2013-05-07 18:58:00,
2013-05-07 14:03:00,67.7,48.9,30.02,ESE,122,2.3,2.3,51,0.00,CLR,,0.00,WeatherDisplay:10.37,2013-05-07 19:03:00,
2013-05-07 14:08:00,67.7,47.8,30.02,SSW,194,4.6,4.6,49,0.00,CLR,,0.00,WeatherDisplay:10.37,2013-05-07 19:08:00,
2013-05-07 14:13:00,68.1,46.5,30.02,ESE,119,6.9,6.9,46,0.00,CLR,,0.00,WeatherDisplay:10.37,2013-05-07 19:13:00,
2013-05-07 14:18:00,68.0,46.4,30.02,SE,131,4.6,4.6,46,0.00,CLR,,0.00,WeatherDisplay:10.37,2013-05-07 19:18:00,
2013-05-07 14:23:00,68.1,47.1,30.01,SE,130,4.6,4.6,47,0.00,CLR,,0.00,WeatherDisplay:10.37,2013-05-07 19:23:00,
2013-05-07 14:28:00,68.8,47.7,30.01,ESE,115,5.8,5.8,47,0.00,CLR,,0.00,WeatherDisplay:10.37,2013-05-07 19:28:00,
2013-05-07 14:33:00,69.2,46.4,30.01,ESE,107,3.5,3.8,44,0.00,CLR,,0.00,WeatherDisplay:10.37,2013-05-07 19:33:00,
2013-05-07 14:38:00,69.0,46.8,30.01,ESE,110,3.5,3.5,45,0.00,CLR,,0.00,WeatherDisplay:10.37,2013-05-07 19:38:00,
2013-05-07 14:43:00,69.6,47.3,30.01,East,82,2.3,2.3,45,0.00,CLR,,0.00,WeatherDisplay:10.37,2013-05-07 19:43:00,
2013-05-07 14:49:00,69.6,46.7,30.00,ESE,110,4.6,4.6,44,0.00,CLR,,0.00,WeatherDisplay:10.37,2013-05-07 19:49:00,
2013-05-07 14:54:00,68.9,46.7,30.00,East,93,4.0,4.0,45,0.00,CLR,,0.00,WeatherDisplay:10.37,2013-05-07 19:54:00,
2013-05-07 14:59:00,68.8,45.4,30.00,ESE,112,6.9,6.9,43,0.00,CLR,,0.00,WeatherDisplay:10.37,2013-05-07 19:59:00,
2013-05-07 15:04:00,69.2,46.9,30.00,ESE,117,2.3,2.3,45,0.00,CLR,,0.00,WeatherDisplay:10.37,2013-05-07 20:04:00,
2013-05-07 15:09:00,69.5,46.6,30.00,SE,124,3.5,3.5,44,0.00,CLR,,0.00,WeatherDisplay:10.37,2013-05-07 20:09:00,
2013-05-07 15:14:00,70.3,46.7,29.99,ENE,65,5.8,5.8,43,0.00,CLR,,0.00,WeatherDisplay:10.37,2013-05-07 20:14:00,
2013-05-07 15:19:00,70.3,46.1,29.99,East,88,6.0,6.0,42,0.00,CLR,,0.00,WeatherDisplay:10.37,2013-05-07 20:19:00,
2013-05-07 15:24:00,69.4,45.9,29.99,ESE,113,3.5,3.5,43,0.00,CLR,,0.00,WeatherDisplay:10.37,2013-05-07 20:24:00,
2013-05-07 15:29:00,69.3,45.2,29.99,ESE,104,6.9,6.9,42,0.00,CLR,,0.00,WeatherDisplay:10.37,2013-05-07 20:29:00,
2013-05-07 15:34:00,68.9,46.1,29.99,East,96,5.8,5.8,44,0.00,CLR,,0.00,WeatherDisplay:10.37,2013-05-07 20:34:00,
2013-05-07 15:39:00,68.8,46.0,29.99,ESE,120,6.9,6.9,44,0.00,CLR,,0.00,WeatherDisplay:10.37,2013-05-07 20:39:00,
2013-05-07 15:44:00,68.9,45.5,29.99,ESE,112,3.5,3.5,43,0.00,CLR,,0.00,WeatherDisplay:10.37,2013-05-07 20:44:00,
2013-05-07 15:49:00,69.3,45.8,29.98,East,96,6.0,6.0,43,0.00,CLR,,0.00,WeatherDisplay:10.37,2013-05-07 20:49:00,
2013-05-07 15:54:00,68.9,46.1,29.98,ESE,110,5.8,5.8,44,0.00,CLR,,0.00,WeatherDisplay:10.37,2013-05-07 20:54:00,
2013-05-07 15:59:00,68.4,45.6,29.98,ENE,77,6.0,6.0,44,0.00,CLR,,0.00,WeatherDisplay:10.37,2013-05-07 20:59:00,
2013-05-07 16:04:00,68.0,45.3,29.98,ESE,119,5.8,5.8,44,0.00,CLR,,0.00,WeatherDisplay:10.37,2013-05-07 21:04:00,
2013-05-07 16:09:00,67.9,45.2,29.98,East,97,6.9,6.9,44,0.00,CLR,,0.00,WeatherDisplay:10.37,2013-05-07 21:09:00,
2013-05-07 16:14:00,68.0,46.4,29.98,SE,146,6.9,6.9,46,0.00,CLR,,0.00,WeatherDisplay:10.37,2013-05-07 21:14:00,
2013-05-07 16:19:00,68.3,44.9,29.98,ENE,57,5.8,5.8,43,0.00,CLR,,0.00,WeatherDisplay:10.37,2013-05-07 21:19:00,
2013-05-07 16:24:00,68.3,43.7,29.98,East,99,4.6,4.6,41,0.00,CLR,,0.00,WeatherDisplay:10.37,2013-05-07 21:24:00,
2013-05-07 16:29:00,67.5,43.6,29.98,ESE,120,5.8,5.8,42,0.00,CLR,,0.00,WeatherDisplay:10.37,2013-05-07 21:29:00,
2013-05-07 16:34:00,66.8,43.6,29.97,ESE,107,6.9,6.9,43,0.00,CLR,,0.00,WeatherDisplay:10.37,2013-05-07 21:34:00,
2013-05-07 16:39:00,66.8,44.8,29.97,ESE,102,5.8,5.8,45,0.00,CLR,,0.00,WeatherDisplay:10.37,2013-05-07 21:39:00,
2013-05-07 16:44:00,67.1,43.8,29.97,ESE,103,5.8,5.8,43,0.00,CLR,,0.00,WeatherDisplay:10.37,2013-05-07 21:44:00,
2013-05-07 16:49:00,67.1,44.4,29.97,ESE,115,3.0,3.0,44,0.00,CLR,,0.00,WeatherDisplay:10.37,2013-05-07 21:49:00,
2013-05-07 16:54:00,67.3,45.8,29.98,ESE,117,3.5,3.5,46,0.00,CLR,,0.00,WeatherDisplay:10.37,2013-05-07 21:54:00,
2013-05-07 16:59:00,67.7,45.0,29.97,East,94,2.3,2.3,44,0.00,CLR,,0.00,WeatherDisplay:10.37,2013-05-07 21:59:00,
2013-05-07 17:04:00,67.7,44.4,29.97,ESE,113,5.8,5.8,43,0.00,CLR,,0.00,WeatherDisplay:10.37,2013-05-07 22:04:00,
2013-05-07 17:09:00,68.1,45.9,29.97,SSW,211,1.1,1.1,45,0.00,CLR,,0.00,WeatherDisplay:10.37,2013-05-07 22:09:00,
2013-05-07 17:14:00,68.8,44.8,29.97,ESE,103,2.3,2.3,42,0.00,CLR,,0.00,WeatherDisplay:10.37,2013-05-07 22:14:00,
2013-05-07 17:19:00,68.8,44.1,29.97,South,187,2.3,2.3,41,0.00,CLR,,0.00,WeatherDisplay:10.37,2013-05-07 22:19:00,
2013-05-07 17:24:00,68.3,43.7,29.97,East,94,8.1,8.1,41,0.00,CLR,,0.00,WeatherDisplay:10.37,2013-05-07 22:24:00,
2013-05-07 17:29:00,67.6,44.9,29.97,ESE,115,1.1,1.1,44,0.00,CLR,,0.00,WeatherDisplay:10.37,2013-05-07 22:29:00,
2013-05-07 17:34:00,67.3,44.0,29.97,ESE,120,4.6,4.6,43,0.00,CLR,,0.00,WeatherDisplay:10.37,2013-05-07 22:34:00,
2013-05-07 17:39:00,67.2,43.3,29.97,ESE,109,2.3,2.3,42,0.00,CLR,,0.00,WeatherDisplay:10.37,2013-05-07 22:39:00,
2013-05-07 17:44:00,67.5,44.2,29.97,East,100,2.3,2.3,43,0.00,CLR,,0.00,WeatherDisplay:10.37,2013-05-07 22:44:00,
2013-05-07 17:49:00,67.4,44.1,29.96,ESE,107,3.5,3.5,43,0.00,CLR,,0.00,WeatherDisplay:10.37,2013-05-07 22:49:00,
2013-05-07 17:54:00,67.1,43.8,29.97,ESE,117,3.5,3.5,43,0.00,CLR,,0.00,WeatherDisplay:10.37,2013-05-07 22:54:00,
2013-05-07 17:59:00,66.9,44.3,29.96,SSW,199,4.6,4.6,44,0.00,CLR,,0.00,WeatherDisplay:10.37,2013-05-07 22:59:00,
2013-05-07 18:04:00,66.7,44.1,29.96,ESE,115,4.6,4.6,44,0.00,CLR,,0.00,WeatherDisplay:10.37,2013-05-07 23:04:00,
2013-05-07 18:09:00,66.4,43.8,29.96,ESE,120,3.5,3.5,44,0.00,CLR,,0.00,WeatherDisplay:10.37,2013-05-07 23:09:00,
2013-05-07 18:14:00,66.3,44.3,29.96,ESE,111,1.1,1.1,45,0.00,CLR,,0.00,WeatherDisplay:10.37,2013-05-07 23:14:00,
2013-05-07 18:19:00,66.2,44.2,29.96,West,278,1.1,1.1,45,0.00,CLR,,0.00,WeatherDisplay:10.37,2013-05-07 23:19:00,
2013-05-07 18:24:00,66.1,44.1,29.96,West,280,0.0,0.0,45,0.00,CLR,,0.00,WeatherDisplay:10.37,2013-05-07 23:24:00,
2013-05-07 18:29:00,65.7,44.3,29.96,SSW,197,2.3,0.0,46,0.00,CLR,,0.00,WeatherDisplay:10.37,2013-05-07 23:29:00,
2013-05-07 18:34:00,65.6,43.7,29.96,SE,137,2.3,2.3,45,0.00,CLR,,0.00,WeatherDisplay:10.37,2013-05-07 23:34:00,
2013-05-07 18:39:00,65.6,43.7,29.96,ESE,103,1.0,0.0,45,0.00,CLR,,0.00,WeatherDisplay:10.37,2013-05-07 23:39:00,
2013-05-07 18:44:00,65.4,43.5,29.96,East,94,1.1,1.1,45,0.00,CLR,,0.00,WeatherDisplay:10.37,2013-05-07 23:44:00,
2013-05-07 18:49:00,65.3,44.5,29.96,WNW,293,1.1,0.0,47,0.00,CLR,,0.00,WeatherDisplay:10.37,2013-05-07 23:49:00,
2013-05-07 18:54:00,65.0,43.7,29.96,ESE,119,1.1,1.1,46,0.00,CLR,,0.00,WeatherDisplay:10.37,2013-05-07 23:54:00,
2013-05-07 18:59:00,64.4,43.7,29.96,SE,134,0.0,0.0,47,0.00,CLR,,0.00,WeatherDisplay:10.37,2013-05-07 23:59:00,
2013-05-07 19:04:00,63.7,43.6,29.96,WSW,240,0.0,0.0,48,0.00,CLR,,0.00,WeatherDisplay:10.37,2013-05-08 00:04:00,
2013-05-07 19:09:00,63.1,43.6,29.96,ESE,120,1.1,0.0,49,0.00,CLR,,0.00,WeatherDisplay:10.37,2013-05-08 00:09:00,
2013-05-07 19:14:00,62.8,43.3,29.96,ESE,121,0.0,0.0,49,0.00,CLR,,0.00,WeatherDisplay:10.37,2013-05-08 00:14:00,
2013-05-07 19:19:00,62.0,43.1,29.96,SSW,210,0.0,0.0,50,0.00,CLR,,0.00,WeatherDisplay:10.37,2013-05-08 00:19:00,
2013-05-07 19:24:00,61.4,43.6,29.96,South,176,1.1,1.1,52,0.00,CLR,,0.00,WeatherDisplay:10.37,2013-05-08 00:24:00,
2013-05-07 19:29:00,60.8,43.6,29.96,SSW,212,0.0,0.0,53,0.00,CLR,,0.00,WeatherDisplay:10.37,2013-05-08 00:29:00,
2013-05-07 19:34:00,60.3,43.6,29.96,SSW,212,0.0,0.0,54,0.00,CLR,,0.00,WeatherDisplay:10.37,2013-05-08 00:34:00,
2013-05-07 19:39:00,59.4,43.7,29.96,WSW,249,1.1,0.0,56,0.00,CLR,,0.00,WeatherDisplay:10.37,2013-05-08 00:39:00,
2013-05-07 19:44:00,58.7,43.5,29.96,WSW,249,0.0,0.0,57,0.00,CLR,,0.00,WeatherDisplay:10.37,2013-05-08 00:44:00,
2013-05-07 19:49:00,58.2,43.9,29.96,WSW,252,0.0,0.0,59,0.00,CLR,,0.00,WeatherDisplay:10.37,2013-05-08 00:49:00,
2013-05-07 19:54:00,57.7,43.5,29.96,WSW,252,0.0,0.0,59,0.00,CLR,,0.00,WeatherDisplay:10.37,2013-05-08 00:54:00,
2013-05-07 19:59:00,57.0,43.2,29.96,WSW,252,0.0,0.0,60,0.00,CLR,,0.00,WeatherDisplay:10.37,2013-05-08 00:59:00,
2013-05-07 20:04:00,56.3,43.4,29.96,WSW,253,0.0,0.1,62,0.00,CLR,,0.00,WeatherDisplay:10.37,2013-05-08 01:04:00,
2013-05-07 20:09:00,55.5,43.1,29.96,WSW,253,0.0,0.0,63,0.00,CLR,,0.00,WeatherDisplay:10.37,2013-05-08 01:09:00,
2013-05-07 20:14:00,54.9,42.9,29.96,WSW,253,0.0,0.1,64,0.00,CLR,,0.00,WeatherDisplay:10.37,2013-05-08 01:14:00,
2013-05-07 20:19:00,54.7,43.2,29.96,WSW,253,0.0,0.0,65,0.00,CLR,,0.00,WeatherDisplay:10.37,2013-05-08 01:19:00,
2013-05-07 20:24:00,54.3,42.8,29.96,WSW,253,1.1,0.0,65,0.00,CLR,,0.00,WeatherDisplay:10.37,2013-05-08 01:24:00,
2013-05-07 20:29:00,53.5,42.4,29.96,WSW,253,0.0,0.0,66,0.00,CLR,,0.00,WeatherDisplay:10.37,2013-05-08 01:29:00,
2013-05-07 20:34:00,52.1,41.5,29.96,WSW,252,0.0,0.0,67,0.00,CLR,,0.00,WeatherDisplay:10.37,2013-05-08 01:34:00,
2013-05-07 20:40:00,50.7,41.3,29.97,WSW,252,0.0,0.0,70,0.00,CLR,,0.00,WeatherDisplay:10.37,2013-05-08 01:40:00,
2013-05-07 20:44:00,49.9,41.2,29.97,WSW,252,1.1,0.0,72,0.00,CLR,,0.00,WeatherDisplay:10.37,2013-05-08 01:44:00,
2013-05-07 20:50:00,49.3,41.0,29.97,WSW,252,0.0,0.0,73,0.00,CLR,,0.00,WeatherDisplay:10.37,2013-05-08 01:50:00,
2013-05-07 20:55:00,48.9,41.0,29.97,WSW,253,0.0,0.0,74,0.00,CLR,,0.00,WeatherDisplay:10.37,2013-05-08 01:55:00,
2013-05-07 21:00:00,48.5,41.3,29.97,WSW,255,1.1,0.0,76,0.00,CLR,,0.00,WeatherDisplay:10.37,2013-05-08 02:00:00,
2013-05-07 21:05:00,48.0,40.5,29.97,WSW,255,0.0,0.0,75,0.00,CLR,,0.00,WeatherDisplay:10.37,2013-05-08 02:05:00,
2013-05-07 21:10:00,47.1,39.9,29.97,WSW,255,0.0,0.0,76,0.00,CLR,,0.00,WeatherDisplay:10.37,2013-05-08 02:10:00,
2013-05-07 21:15:00,46.6,40.1,29.98,West,259,0.0,0.0,78,0.00,CLR,,0.00,WeatherDisplay:10.37,2013-05-08 02:15:00,
2013-05-07 21:20:00,47.8,40.6,29.98,West,280,0.0,0.0,76,0.00,CLR,,0.00,WeatherDisplay:10.37,2013-05-08 02:20:00,
2013-05-07 21:25:00,47.0,38.8,29.98,West,280,0.0,0.0,73,0.00,CLR,,0.00,WeatherDisplay:10.37,2013-05-08 02:25:00,
2013-05-07 21:30:00,45.9,38.8,29.98,West,280,0.0,0.0,76,0.00,CLR,,0.00,WeatherDisplay:10.37,2013-05-08 02:30:00,
2013-05-07 21:35:00,45.0,38.6,29.98,West,280,0.0,0.0,78,0.00,CLR,,0.00,WeatherDisplay:10.37,2013-05-08 02:35:00,
2013-05-07 21:40:00,44.3,37.9,29.98,West,280,0.0,0.0,78,0.00,CLR,,0.00,WeatherDisplay:10.37,2013-05-08 02:40:00,
2013-05-07 21:45:00,43.8,37.7,29.98,West,280,0.0,0.0,79,0.00,CLR,,0.00,WeatherDisplay:10.37,2013-05-08 02:45:00,
2013-05-07 21:50:00,43.2,37.4,29.98,West,280,0.0,0.0,80,0.00,CLR,,0.00,WeatherDisplay:10.37,2013-05-08 02:50:00,
2013-05-07 21:55:00,42.9,37.4,29.98,West,280,0.0,0.0,81,0.00,CLR,,0.00,WeatherDisplay:10.37,2013-05-08 02:55:00,
2013-05-07 22:00:00,42.5,37.1,29.98,West,280,0.0,0.0,81,0.00,CLR,,0.00,WeatherDisplay:10.37,2013-05-08 03:00:00,
2013-05-07 22:05:00,42.2,36.8,29.98,West,280,0.0,0.0,81,0.00,CLR,,0.00,WeatherDisplay:10.37,2013-05-08 03:05:00,
2013-05-07 22:10:00,41.7,36.6,29.99,West,280,0.0,0.0,82,0.00,CLR,,0.00,WeatherDisplay:10.37,2013-05-08 03:10:00,
2013-05-07 22:15:00,41.2,36.1,29.98,West,280,0.0,0.0,82,0.00,CLR,,0.00,WeatherDisplay:10.37,2013-05-08 03:15:00,
2013-05-07 22:20:00,40.8,36.1,29.98,West,280,0.0,0.0,83,0.00,CLR,,0.00,WeatherDisplay:10.37,2013-05-08 03:20:00,
2013-05-07 22:25:00,40.5,35.7,29.98,West,280,0.0,0.0,83,0.00,CLR,,0.00,WeatherDisplay:10.37,2013-05-08 03:25:00,
2013-05-07 22:30:00,40.3,35.6,29.98,West,280,0.0,0.0,83,0.00,CLR,,0.00,WeatherDisplay:10.37,2013-05-08 03:30:00,
2013-05-07 22:35:00,40.1,35.6,29.98,West,280,0.0,0.0,84,0.00,CLR,,0.00,WeatherDisplay:10.37,2013-05-08 03:35:00,
2013-05-07 22:40:00,39.8,35.7,29.98,West,280,0.0,0.0,85,0.00,CLR,,0.00,WeatherDisplay:10.37,2013-05-08 03:40:00,
2013-05-07 22:45:00,39.7,35.6,29.98,West,280,0.0,0.0,85,0.00,CLR,,0.00,WeatherDisplay:10.37,2013-05-08 03:45:00,
2013-05-07 22:50:00,39.5,35.4,29.98,West,280,0.0,0.0,85,0.00,CLR,,0.00,WeatherDisplay:10.37,2013-05-08 03:50:00,
2013-05-07 22:55:00,39.4,35.3,29.98,West,280,0.0,1.0,85,0.00,CLR,,0.00,WeatherDisplay:10.37,2013-05-08 03:55:00,
2013-05-07 23:00:00,39.2,35.1,29.98,West,280,0.0,0.0,85,0.00,CLR,,0.00,WeatherDisplay:10.37,2013-05-08 04:00:00,
2013-05-07 23:01:00,39.1,35.0,29.98,West,280,0.0,0.0,85,0.00,CLR,,0.00,WeatherDisplay:10.37,2013-05-08 04:01:00,
2013-05-07 23:06:00,38.9,35.1,29.98,West,280,0.0,0.0,86,0.00,CLR,,0.00,WeatherDisplay:10.37,2013-05-08 04:06:00,
2013-05-07 23:11:00,38.7,34.9,29.98,West,280,0.0,0.0,86,0.00,CLR,,0.00,WeatherDisplay:10.37,2013-05-08 04:11:00,
2013-05-07 23:16:00,38.5,34.7,29.98,West,280,0.0,0.0,86,0.00,CLR,,0.00,WeatherDisplay:10.37,2013-05-08 04:16:00,
2013-05-07 23:21:00,38.3,34.5,29.98,West,280,0.0,0.0,86,0.00,CLR,,0.00,WeatherDisplay:10.37,2013-05-08 04:21:00,
2013-05-07 23:26:00,38.0,34.2,29.98,West,280,0.0,0.0,86,0.00,CLR,,0.00,WeatherDisplay:10.37,2013-05-08 04:26:00,
2013-05-07 23:31:00,37.8,34.3,29.98,West,280,0.0,0.0,87,0.00,CLR,,0.00,WeatherDisplay:10.37,2013-05-08 04:31:00,
2013-05-07 23:36:00,37.7,34.2,29.98,West,280,0.0,0.0,87,0.00,CLR,,0.00,WeatherDisplay:10.37,2013-05-08 04:36:00,
2013-05-07 23:41:00,37.6,34.1,29.98,West,280,0.0,0.0,87,0.00,CLR,,0.00,WeatherDisplay:10.37,2013-05-08 04:41:00,
2013-05-07 23:46:00,37.4,33.9,29.98,West,280,0.0,0.0,87,0.00,CLR,,0.00,WeatherDisplay:10.37,2013-05-08 04:46:00,
2013-05-07 23:51:00,37.3,34.1,29.98,West,280,0.0,0.0,88,0.00,CLR,,0.00,WeatherDisplay:10.37,2013-05-08 04:51:00,
2013-05-07 23:56:00,37.0,33.5,29.98,West,280,0.0,0.0,87,0.00,CLR,,0.00,WeatherDisplay:10.37,2013-05-08 04:56:00,